createdAt,value
2019-06-27T00:01:34.184Z,20.90
2019-06-27T00:03:36.345Z,20.70
2019-06-27T00:05:37.755Z,20.60
2019-06-27T00:07:39.106Z,20.60
2019-06-27T00:09:40.470Z,20.40
2019-06-27T00:11:41.861Z,20.30
2019-06-27T00:13:43.225Z,20.20
2019-06-27T00:15:44.632Z,20.00
2019-06-27T00:17:46.042Z,20.00
2019-06-27T00:19:47.414Z,19.90
2019-06-27T00:21:48.867Z,19.80
2019-06-27T00:23:50.249Z,19.80
2019-06-27T00:25:51.638Z,19.70
2019-06-27T00:27:53.002Z,19.60
2019-06-27T00:29:54.415Z,19.40
2019-06-27T00:31:55.774Z,19.40
2019-06-27T00:33:57.738Z,19.40
2019-06-27T00:35:59.151Z,19.30
2019-06-27T00:38:00.520Z,19.20
2019-06-27T00:40:04.618Z,19.10
2019-06-27T00:42:05.978Z,19.10
2019-06-27T00:44:07.340Z,19.00
2019-06-27T00:46:08.740Z,18.80
2019-06-27T00:48:10.103Z,18.70
2019-06-27T00:50:12.949Z,18.70
2019-06-27T00:52:14.355Z,18.60
2019-06-27T00:54:15.774Z,18.50
2019-06-27T00:56:17.198Z,18.40
2019-06-27T00:58:18.669Z,18.30
2019-06-27T01:00:20.026Z,18.30
2019-06-27T01:02:21.814Z,18.30
2019-06-27T01:04:23.315Z,18.20
2019-06-27T01:06:24.762Z,18.20
2019-06-27T01:08:26.147Z,18.10
2019-06-27T01:10:27.556Z,18.10
2019-06-27T01:12:28.929Z,18.00
2019-06-27T01:14:30.293Z,18.00
2019-06-27T01:16:31.893Z,18.00
2019-06-27T01:18:33.271Z,18.00
2019-06-27T01:20:34.695Z,18.00
2019-06-27T01:22:36.042Z,18.00
2019-06-27T01:24:37.410Z,17.90
2019-06-27T01:26:38.828Z,17.80
2019-06-27T01:28:40.284Z,17.80
2019-06-27T01:30:41.648Z,17.80
2019-06-27T01:32:43.059Z,17.80
2019-06-27T01:34:44.423Z,17.70
2019-06-27T01:36:45.805Z,17.70
2019-06-27T01:38:47.197Z,17.60
2019-06-27T01:40:48.657Z,17.60
2019-06-27T01:42:50.073Z,17.50
2019-06-27T01:44:53.432Z,17.50
2019-06-27T01:46:54.794Z,17.50
2019-06-27T01:48:56.152Z,17.40
2019-06-27T01:50:57.537Z,17.40
2019-06-27T01:52:58.896Z,17.30
2019-06-27T01:55:00.254Z,17.30
2019-06-27T01:57:01.651Z,17.40
2019-06-27T01:59:03.016Z,17.40
2019-06-27T02:01:04.414Z,17.40
2019-06-27T02:03:06.013Z,17.40
2019-06-27T02:05:07.606Z,17.40
2019-06-27T02:07:09.083Z,17.40
2019-06-27T02:09:10.444Z,17.50
2019-06-27T02:11:11.837Z,17.40
2019-06-27T02:13:13.222Z,17.40
2019-06-27T02:15:15.576Z,17.40
2019-06-27T02:17:17.090Z,17.40
2019-06-27T02:19:18.497Z,17.40
2019-06-27T02:21:19.841Z,17.40
2019-06-27T02:23:21.206Z,17.50
2019-06-27T02:25:22.898Z,17.50
2019-06-27T02:27:24.254Z,17.50
2019-06-27T02:29:25.650Z,17.50
2019-06-27T02:31:27.085Z,17.50
2019-06-27T02:33:28.476Z,17.60
2019-06-27T02:35:29.865Z,17.60
2019-06-27T02:37:31.305Z,17.60
2019-06-27T02:39:32.695Z,17.60
2019-06-27T02:41:34.243Z,17.50
2019-06-27T02:43:35.672Z,17.60
2019-06-27T02:45:37.069Z,17.60
2019-06-27T02:47:38.457Z,17.70
2019-06-27T02:49:39.962Z,17.60
2019-06-27T02:51:41.371Z,17.60
2019-06-27T02:53:42.748Z,17.60
2019-06-27T02:55:44.190Z,17.50
2019-06-27T02:57:45.581Z,17.40
2019-06-27T02:59:47.006Z,17.40
2019-06-27T03:01:48.502Z,17.40
2019-06-27T03:03:49.934Z,17.40
2019-06-27T03:05:51.420Z,17.40
2019-06-27T03:07:52.814Z,17.30
2019-06-27T03:09:54.251Z,17.30
2019-06-27T03:11:59.944Z,17.20
2019-06-27T03:13:58.947Z,17.20
2019-06-27T03:16:00.479Z,17.10
2019-06-27T03:18:01.871Z,17.10
2019-06-27T03:20:06.989Z,17.00
2019-06-27T03:22:08.373Z,17.00
2019-06-27T03:24:09.811Z,16.90
2019-06-27T03:26:11.199Z,16.80
2019-06-27T03:28:12.587Z,16.80
2019-06-27T03:30:14.318Z,16.70
2019-06-27T03:32:15.712Z,16.60
2019-06-27T03:34:17.245Z,16.60
2019-06-27T03:36:18.665Z,16.50
2019-06-27T03:38:20.260Z,16.40
2019-06-27T03:40:21.798Z,16.40
2019-06-27T03:42:23.270Z,16.30
2019-06-27T03:44:24.656Z,16.30
2019-06-27T03:46:26.102Z,16.30
2019-06-27T03:48:27.588Z,16.20
2019-06-27T03:50:28.991Z,16.20
2019-06-27T03:52:30.438Z,16.30
2019-06-27T03:54:31.820Z,16.30
2019-06-27T03:56:33.229Z,16.40
2019-06-27T03:58:34.646Z,16.30
2019-06-27T04:00:36.785Z,16.30
2019-06-27T04:02:38.742Z,16.30
2019-06-27T04:04:40.665Z,16.30
2019-06-27T04:06:42.381Z,16.40
2019-06-27T04:08:44.872Z,16.50
2019-06-27T04:10:47.600Z,16.50
2019-06-27T04:12:49.401Z,16.50
2019-06-27T04:14:51.140Z,16.40
2019-06-27T04:16:52.819Z,16.30
2019-06-27T04:18:54.515Z,16.30
2019-06-27T04:20:56.329Z,16.30
2019-06-27T04:22:58.048Z,16.20
2019-06-27T04:24:59.890Z,16.10
2019-06-27T04:27:01.768Z,16.10
2019-06-27T04:29:03.602Z,16.00
2019-06-27T04:31:05.393Z,16.00
2019-06-27T04:33:07.225Z,15.90
2019-06-27T04:35:09.407Z,15.90
2019-06-27T04:37:11.285Z,16.00
2019-06-27T04:39:13.032Z,16.10
2019-06-27T04:41:14.818Z,16.20
2019-06-27T04:43:16.670Z,16.20
2019-06-27T04:45:18.487Z,16.20
2019-06-27T04:47:20.333Z,16.30
2019-06-27T04:49:22.201Z,16.30
2019-06-27T04:51:24.052Z,16.30
2019-06-27T04:53:25.838Z,16.30
2019-06-27T04:55:27.560Z,16.40
2019-06-27T04:57:30.078Z,16.40
2019-06-27T04:59:48.106Z,16.40
2019-06-27T05:01:35.563Z,16.40
2019-06-27T05:03:37.381Z,16.50
2019-06-27T05:05:39.075Z,16.50
2019-06-27T05:07:41.005Z,16.60
2019-06-27T05:09:42.802Z,16.70
2019-06-27T05:11:44.636Z,16.90
2019-06-27T05:13:46.459Z,17.00
2019-06-27T05:15:48.194Z,17.30
2019-06-27T05:17:49.893Z,17.50
2019-06-27T05:19:51.675Z,17.80
2019-06-27T05:21:53.499Z,17.90
2019-06-27T05:23:55.311Z,18.00
2019-06-27T05:25:57.043Z,17.90
2019-06-27T05:27:58.853Z,17.80
2019-06-27T05:30:09.517Z,17.50
2019-06-27T05:32:04.408Z,17.40
2019-06-27T05:34:06.131Z,17.30
2019-06-27T05:36:07.522Z,17.10
2019-06-27T05:38:09.016Z,17.00
2019-06-27T05:40:10.935Z,16.90
2019-06-27T05:42:12.335Z,16.90
2019-06-27T05:44:13.805Z,16.80
2019-06-27T05:46:15.362Z,16.80
2019-06-27T05:48:16.882Z,16.80
2019-06-27T05:50:18.378Z,16.80
2019-06-27T05:52:19.776Z,17.00
2019-06-27T05:54:21.165Z,17.00
2019-06-27T05:56:22.581Z,17.20
2019-06-27T05:58:23.996Z,17.30
2019-06-27T06:00:28.972Z,17.50
2019-06-27T06:02:28.811Z,17.40
2019-06-27T06:04:30.202Z,17.50
2019-06-27T06:06:31.594Z,17.50
2019-06-27T06:08:33.014Z,17.90
2019-06-27T06:10:34.442Z,18.50
2019-06-27T06:12:35.898Z,19.20
2019-06-27T06:14:37.297Z,19.80
2019-06-27T06:16:38.682Z,20.40
2019-06-27T06:18:40.115Z,21.00
2019-06-27T06:20:41.504Z,21.50
2019-06-27T06:22:42.885Z,22.10
2019-06-27T06:24:44.329Z,22.60
2019-06-27T06:26:45.775Z,22.80
2019-06-27T06:28:47.192Z,23.20
2019-06-27T06:30:48.640Z,23.20
2019-06-27T06:32:50.165Z,23.30
2019-06-27T06:34:51.586Z,23.00
2019-06-27T06:36:52.976Z,22.70
2019-06-27T06:38:54.413Z,23.20
2019-06-27T06:41:09.494Z,23.10
2019-06-27T06:43:10.917Z,23.10
2019-06-27T06:45:13.143Z,23.20
2019-06-27T06:47:14.651Z,22.90
2019-06-27T06:49:16.043Z,23.20
2019-06-27T06:51:17.466Z,23.20
2019-06-27T06:53:18.838Z,23.10
2019-06-27T06:55:20.276Z,23.40
2019-06-27T06:57:21.661Z,23.60
2019-06-27T06:59:23.057Z,23.80
2019-06-27T07:01:24.469Z,23.70
2019-06-27T07:03:25.856Z,23.30
2019-06-27T07:05:27.244Z,23.50
2019-06-27T07:07:28.767Z,23.60
2019-06-27T07:09:30.162Z,23.80
2019-06-27T07:11:31.543Z,24.20
2019-06-27T07:13:33.059Z,24.10
2019-06-27T07:15:34.488Z,24.30
2019-06-27T07:17:36.008Z,23.80
2019-06-27T07:19:37.446Z,23.90
2019-06-27T07:21:38.848Z,23.90
2019-06-27T07:23:40.281Z,23.60
2019-06-27T07:25:42.031Z,23.60
2019-06-27T07:27:43.496Z,23.90
2019-06-27T07:29:44.978Z,23.90
2019-06-27T07:31:46.374Z,23.80
2019-06-27T07:33:47.789Z,23.80
2019-06-27T07:35:49.203Z,24.10
2019-06-27T07:37:50.722Z,24.40
2019-06-27T07:39:52.195Z,24.40
2019-06-27T07:41:53.677Z,24.30
2019-06-27T07:43:55.218Z,24.10
2019-06-27T07:45:56.668Z,24.40
2019-06-27T07:47:58.089Z,24.70
2019-06-27T07:49:59.514Z,25.00
2019-06-27T07:52:00.884Z,24.80
2019-06-27T07:54:02.276Z,24.70
2019-06-27T07:56:03.696Z,24.60
2019-06-27T07:58:05.225Z,24.70
2019-06-27T08:00:08.440Z,25.20
2019-06-27T08:02:09.886Z,25.10
2019-06-27T08:04:11.261Z,25.00
2019-06-27T08:06:12.677Z,25.10
2019-06-27T08:08:14.182Z,25.00
2019-06-27T08:10:15.976Z,25.00
2019-06-27T08:12:17.534Z,25.00
2019-06-27T08:14:19.009Z,25.30
2019-06-27T08:16:20.407Z,25.30
2019-06-27T08:18:21.873Z,25.30
2019-06-27T08:20:23.329Z,25.10
2019-06-27T08:22:24.721Z,25.20
2019-06-27T08:24:26.114Z,25.10
2019-06-27T08:26:27.743Z,25.20
2019-06-27T08:28:29.142Z,25.10
2019-06-27T08:30:30.593Z,25.20
2019-06-27T08:32:31.993Z,25.00
2019-06-27T08:34:33.649Z,25.10
2019-06-27T08:36:35.122Z,25.20
2019-06-27T08:38:36.554Z,25.40
2019-06-27T08:40:37.973Z,25.70
2019-06-27T08:42:39.399Z,26.20
2019-06-27T08:44:40.821Z,26.20
2019-06-27T08:46:42.218Z,26.00
2019-06-27T08:48:43.697Z,25.90
2019-06-27T08:50:45.252Z,25.90
2019-06-27T08:52:46.637Z,25.80
2019-06-27T08:54:48.073Z,26.00
2019-06-27T08:56:49.467Z,26.00
2019-06-27T08:58:50.862Z,26.00
2019-06-27T09:00:52.280Z,26.10
2019-06-27T09:02:53.723Z,26.30
2019-06-27T09:04:55.140Z,26.50
2019-06-27T09:06:56.576Z,26.70
2019-06-27T09:08:57.963Z,27.00
2019-06-27T09:10:59.388Z,27.00
2019-06-27T09:13:00.779Z,27.00
2019-06-27T09:15:06.206Z,27.00
2019-06-27T09:17:08.435Z,26.90
2019-06-27T09:19:09.864Z,26.80
2019-06-27T09:21:11.524Z,26.80
2019-06-27T09:23:12.967Z,26.90
2019-06-27T09:25:14.392Z,26.70
2019-06-27T09:27:16.742Z,26.60
2019-06-27T09:29:18.224Z,26.60
2019-06-27T09:31:19.642Z,26.70
2019-06-27T09:33:21.069Z,26.90
2019-06-27T09:35:22.462Z,26.90
2019-06-27T09:37:23.905Z,26.90
2019-06-27T09:39:27.065Z,27.00
2019-06-27T09:41:28.603Z,27.20
2019-06-27T09:43:30.012Z,27.50
2019-06-27T09:45:31.598Z,27.60
2019-06-27T09:47:33.021Z,27.40
2019-06-27T09:49:34.403Z,27.20
2019-06-27T09:51:35.789Z,27.40
2019-06-27T09:53:37.242Z,27.70
2019-06-27T09:55:38.687Z,27.60
2019-06-27T09:57:40.127Z,27.70
2019-06-27T09:59:41.633Z,27.40
2019-06-27T10:01:43.182Z,27.70
2019-06-27T10:03:44.565Z,27.70
2019-06-27T10:05:45.971Z,27.80
2019-06-27T10:07:47.404Z,27.90
2019-06-27T10:09:48.805Z,27.70
2019-06-27T10:11:53.304Z,27.80
2019-06-27T10:13:53.518Z,27.80
2019-06-27T10:15:54.934Z,27.70
2019-06-27T10:17:56.348Z,27.80
2019-06-27T10:19:57.730Z,27.90
2019-06-27T10:21:59.229Z,28.20
2019-06-27T10:24:00.678Z,28.00
2019-06-27T10:26:02.112Z,28.00
2019-06-27T10:28:03.541Z,28.10
2019-06-27T10:30:06.350Z,28.30
2019-06-27T10:32:07.805Z,28.40
2019-06-27T10:34:09.207Z,28.30
2019-06-27T10:36:10.634Z,28.30
2019-06-27T10:38:12.025Z,28.30
2019-06-27T10:40:13.822Z,28.30
2019-06-27T10:42:15.260Z,28.40
2019-06-27T10:44:16.651Z,28.30
2019-06-27T10:46:18.055Z,28.20
2019-06-27T10:48:19.475Z,28.30
2019-06-27T10:50:20.894Z,28.20
2019-06-27T10:52:22.300Z,27.80
2019-06-27T10:54:23.690Z,27.70
2019-06-27T10:56:25.126Z,28.00
2019-06-27T10:58:26.551Z,28.50
2019-06-27T11:00:27.998Z,28.70
2019-06-27T11:02:29.482Z,28.80
2019-06-27T11:04:30.878Z,28.60
2019-06-27T11:06:32.317Z,28.50
2019-06-27T11:08:33.701Z,28.60
2019-06-27T11:10:35.084Z,28.90
2019-06-27T11:12:36.500Z,29.00
2019-06-27T11:14:37.871Z,29.00
2019-06-27T11:16:39.264Z,29.10
2019-06-27T11:18:40.743Z,29.40
2019-06-27T11:20:42.117Z,29.20
2019-06-27T11:22:43.645Z,29.20
2019-06-27T11:24:45.053Z,29.10
2019-06-27T11:26:47.139Z,29.10
2019-06-27T11:28:49.341Z,29.40
2019-06-27T11:30:50.770Z,29.30
2019-06-27T11:32:52.179Z,29.50
2019-06-27T11:34:53.730Z,29.20
2019-06-27T11:36:55.127Z,29.40
2019-06-27T11:38:56.631Z,29.70
2019-06-27T11:40:58.059Z,29.80
2019-06-27T11:42:59.492Z,29.70
2019-06-27T11:45:00.901Z,29.80
2019-06-27T11:47:02.349Z,30.00
2019-06-27T11:49:03.788Z,30.10
2019-06-27T11:51:05.218Z,30.00
2019-06-27T11:53:06.603Z,30.00
2019-06-27T11:55:08.198Z,30.00
2019-06-27T11:57:09.611Z,29.80
2019-06-27T11:59:11.003Z,29.20
2019-06-27T12:01:12.444Z,29.40
2019-06-27T12:03:13.845Z,29.80
2019-06-27T12:05:15.418Z,29.90
2019-06-27T12:07:16.864Z,30.20
2019-06-27T12:09:18.244Z,30.20
2019-06-27T12:11:19.634Z,30.30
2019-06-27T12:13:21.176Z,30.60
2019-06-27T12:15:22.606Z,30.50
2019-06-27T12:17:24.018Z,30.60
2019-06-27T12:19:25.455Z,30.20
2019-06-27T12:21:26.913Z,30.10
2019-06-27T12:23:28.318Z,30.10
2019-06-27T12:25:29.754Z,29.80
2019-06-27T12:27:31.393Z,29.80
2019-06-27T12:29:32.805Z,29.80
2019-06-27T12:31:34.180Z,29.80
2019-06-27T12:33:35.672Z,29.90
2019-06-27T12:35:37.206Z,29.90
2019-06-27T12:37:39.848Z,30.10
2019-06-27T12:39:41.525Z,30.10
2019-06-27T12:41:42.928Z,30.30
2019-06-27T12:43:44.313Z,30.20
2019-06-27T12:45:45.705Z,30.30
2019-06-27T12:47:47.141Z,30.30
2019-06-27T12:50:01.193Z,30.30
2019-06-27T12:51:51.822Z,30.20
2019-06-27T12:53:55.662Z,30.00
2019-06-27T12:55:56.841Z,29.80
2019-06-27T12:57:58.228Z,29.90
2019-06-27T12:59:59.630Z,30.20
2019-06-27T13:02:01.074Z,30.30
2019-06-27T13:04:02.449Z,30.50
2019-06-27T13:06:03.849Z,30.40
2019-06-27T13:08:05.289Z,30.50
2019-06-27T13:10:07.147Z,30.50
2019-06-27T13:12:08.546Z,30.60
2019-06-27T13:14:09.944Z,30.60
2019-06-27T13:16:11.378Z,30.70
2019-06-27T13:18:12.830Z,30.50
2019-06-27T13:20:14.565Z,30.30
2019-06-27T13:22:16.024Z,30.30
2019-06-27T13:24:17.529Z,30.10
2019-06-27T13:26:19.027Z,30.20
2019-06-27T13:28:20.482Z,30.20
2019-06-27T13:30:22.012Z,30.10
2019-06-27T13:32:25.434Z,30.00
2019-06-27T13:34:39.957Z,29.80
2019-06-27T13:36:33.031Z,29.70
2019-06-27T13:38:33.395Z,29.60
2019-06-27T13:40:35.026Z,29.70
2019-06-27T13:42:38.420Z,30.10
2019-06-27T13:44:39.735Z,30.20
2019-06-27T13:46:41.296Z,30.10
2019-06-27T13:48:42.973Z,29.90
2019-06-27T13:50:44.366Z,29.70
2019-06-27T13:52:45.909Z,29.70
2019-06-27T13:54:47.302Z,29.70
2019-06-27T13:56:48.782Z,29.60
2019-06-27T13:58:50.311Z,29.50
2019-06-27T14:00:51.739Z,29.50
2019-06-27T14:02:53.153Z,29.40
2019-06-27T14:04:57.472Z,29.40
2019-06-27T14:06:57.862Z,29.30
2019-06-27T14:08:59.288Z,29.20
2019-06-27T14:11:00.670Z,29.00
2019-06-27T14:13:02.206Z,29.00
2019-06-27T14:15:07.580Z,28.90
2019-06-27T14:17:08.968Z,28.80
2019-06-27T14:19:10.395Z,28.80
2019-06-27T14:21:11.982Z,28.80
2019-06-27T14:23:13.343Z,28.80
2019-06-27T14:25:15.040Z,28.70
2019-06-27T14:27:16.463Z,28.80
2019-06-27T14:29:17.897Z,29.00
2019-06-27T14:31:19.289Z,29.00
2019-06-27T14:33:20.686Z,29.10
2019-06-27T14:35:22.153Z,29.40
2019-06-27T14:37:23.534Z,29.50
2019-06-27T14:39:24.960Z,29.30
2019-06-27T14:41:26.381Z,29.00
2019-06-27T14:43:27.794Z,28.90
2019-06-27T14:45:29.253Z,28.50
2019-06-27T14:47:30.651Z,28.40
2019-06-27T14:49:32.026Z,28.20
2019-06-27T14:51:33.467Z,28.10
2019-06-27T14:53:34.991Z,28.10
2019-06-27T14:55:36.501Z,28.10
2019-06-27T14:57:38.033Z,28.00
2019-06-27T14:59:39.600Z,28.00
2019-06-27T15:01:41.044Z,27.90
2019-06-27T15:03:42.496Z,27.90
2019-06-27T15:05:44.012Z,27.90
2019-06-27T15:07:45.420Z,28.00
2019-06-27T15:09:46.871Z,28.30
2019-06-27T15:11:48.262Z,28.40
2019-06-27T15:13:49.652Z,28.30
2019-06-27T15:15:51.068Z,27.90
2019-06-27T15:17:52.509Z,27.80
2019-06-27T15:19:53.939Z,27.70
2019-06-27T15:21:55.407Z,27.50
2019-06-27T15:23:56.809Z,27.50
2019-06-27T15:25:58.209Z,27.50
2019-06-27T15:27:59.747Z,27.60
2019-06-27T15:30:01.222Z,27.50
2019-06-27T15:32:02.799Z,27.50
2019-06-27T15:34:04.202Z,27.30
2019-06-27T15:36:05.722Z,27.40
2019-06-27T15:38:07.102Z,27.40
2019-06-27T15:40:08.945Z,27.30
2019-06-27T15:42:10.408Z,27.20
2019-06-27T15:44:11.805Z,27.00
2019-06-27T15:46:13.264Z,26.90
2019-06-27T15:48:14.699Z,26.80
2019-06-27T15:50:16.086Z,26.70
2019-06-27T15:52:17.498Z,26.70
2019-06-27T15:54:19.024Z,26.60
2019-06-27T15:56:20.523Z,26.60
2019-06-27T15:58:22.002Z,26.60
2019-06-27T16:00:23.638Z,26.50
2019-06-27T16:02:25.266Z,26.60
2019-06-27T16:04:33.845Z,26.60
2019-06-27T16:06:30.174Z,26.60
2019-06-27T16:08:31.919Z,26.50
2019-06-27T16:10:33.447Z,26.50
2019-06-27T16:12:36.256Z,26.50
2019-06-27T16:14:37.698Z,26.30
2019-06-27T16:16:39.085Z,26.30
2019-06-27T16:18:41.064Z,26.30
2019-06-27T16:20:42.647Z,26.30
2019-06-27T16:22:44.153Z,26.20
2019-06-27T16:24:45.605Z,26.30
2019-06-27T16:26:47.085Z,26.20
2019-06-27T16:28:48.596Z,26.20
2019-06-27T16:30:50.026Z,26.20
2019-06-27T16:32:51.387Z,26.20
2019-06-27T16:34:52.818Z,26.20
2019-06-27T16:36:54.258Z,26.20
2019-06-27T16:38:55.639Z,26.00
2019-06-27T16:40:57.044Z,26.00
2019-06-27T16:42:58.483Z,26.00
2019-06-27T16:44:59.873Z,25.90
2019-06-27T16:47:01.337Z,25.90
2019-06-27T16:49:02.805Z,25.80
2019-06-27T16:51:04.272Z,25.80
2019-06-27T16:53:05.705Z,25.80
2019-06-27T16:55:07.352Z,25.70
2019-06-27T16:57:08.780Z,25.70
2019-06-27T16:59:10.232Z,25.60
2019-06-27T17:01:11.650Z,25.60
2019-06-27T17:03:13.042Z,25.50
2019-06-27T17:05:14.656Z,25.40
2019-06-27T17:07:16.036Z,25.40
2019-06-27T17:09:17.452Z,25.30
2019-06-27T17:11:18.930Z,25.30
2019-06-27T17:13:20.317Z,25.30
2019-06-27T17:15:21.721Z,25.20
2019-06-27T17:17:23.266Z,25.20
2019-06-27T17:19:24.865Z,25.20
2019-06-27T17:21:26.273Z,25.10
2019-06-27T17:23:27.686Z,25.00
2019-06-27T17:25:29.114Z,25.00
2019-06-27T17:27:30.504Z,25.00
2019-06-27T17:29:32.028Z,25.10
2019-06-27T17:31:33.423Z,25.10
2019-06-27T17:33:34.840Z,25.00
2019-06-27T17:35:36.245Z,24.80
2019-06-27T17:37:37.626Z,24.70
2019-06-27T17:39:39.048Z,24.60
2019-06-27T17:41:40.486Z,24.50
2019-06-27T17:43:41.913Z,24.40
2019-06-27T17:45:43.306Z,24.40
2019-06-27T17:47:44.735Z,24.30
2019-06-27T17:49:49.079Z,24.30
2019-06-27T17:51:49.447Z,24.20
2019-06-27T17:53:50.866Z,24.10
2019-06-27T17:55:54.174Z,24.10
2019-06-27T17:57:55.625Z,24.00
2019-06-27T17:59:57.040Z,23.90
2019-06-27T18:01:58.643Z,23.80
2019-06-27T18:04:00.505Z,23.80
2019-06-27T18:06:01.972Z,23.70
2019-06-27T18:08:03.447Z,23.60
2019-06-27T18:10:05.455Z,23.50
2019-06-27T18:12:06.855Z,23.40
2019-06-27T18:14:08.314Z,23.40
2019-06-27T18:16:09.745Z,23.30
2019-06-27T18:18:11.147Z,23.20
2019-06-27T18:20:12.856Z,23.10
2019-06-27T18:22:15.381Z,23.10
2019-06-27T18:24:16.838Z,23.00
2019-06-27T18:26:19.462Z,23.00
2019-06-27T18:28:20.896Z,22.90
2019-06-27T18:30:22.413Z,22.90
2019-06-27T18:32:23.816Z,22.80
2019-06-27T18:34:25.247Z,22.80
2019-06-27T18:36:26.625Z,22.80
2019-06-27T18:38:28.011Z,22.70
2019-06-27T18:40:29.459Z,22.60
2019-06-27T18:42:30.904Z,22.60
2019-06-27T18:44:32.271Z,22.40
2019-06-27T18:46:33.806Z,22.30
2019-06-27T18:48:35.275Z,22.20
2019-06-27T18:50:36.690Z,22.10
2019-06-27T18:52:38.103Z,22.10
2019-06-27T18:54:39.481Z,22.00
2019-06-27T18:56:40.873Z,21.90
2019-06-27T18:58:42.299Z,21.80
2019-06-27T19:00:43.684Z,21.80
2019-06-27T19:02:45.142Z,21.70
2019-06-27T19:04:46.559Z,21.60
2019-06-27T19:06:47.944Z,21.60
2019-06-27T19:08:49.331Z,21.50
2019-06-27T19:10:50.748Z,21.50
2019-06-27T19:12:52.136Z,21.30
2019-06-27T19:14:53.551Z,21.30
2019-06-27T19:16:54.972Z,21.20
2019-06-27T19:18:58.300Z,21.10
2019-06-27T19:21:01.670Z,21.00
2019-06-27T19:23:10.890Z,20.90
2019-06-27T19:25:14.162Z,20.90
2019-06-27T19:27:15.541Z,20.80
2019-06-27T19:29:16.949Z,20.80
2019-06-27T19:31:18.461Z,20.80
2019-06-27T19:33:19.931Z,20.70
2019-06-27T19:35:21.396Z,20.70
2019-06-27T19:37:22.880Z,20.60
2019-06-27T19:39:24.259Z,20.50
2019-06-27T19:41:25.643Z,20.40
2019-06-27T19:43:28.392Z,20.30
2019-06-27T19:45:29.989Z,20.20
2019-06-27T19:47:31.385Z,20.20
2019-06-27T19:49:32.830Z,20.10
2019-06-27T19:51:34.367Z,20.10
2019-06-27T19:53:35.750Z,20.00
2019-06-27T19:55:37.666Z,20.00
2019-06-27T19:57:39.200Z,20.00
2019-06-27T19:59:40.594Z,19.90
2019-06-27T20:01:41.980Z,19.90
2019-06-27T20:03:43.401Z,19.90
2019-06-27T20:05:44.832Z,19.80
2019-06-27T20:07:46.367Z,19.80
2019-06-27T20:09:47.728Z,19.70
2019-06-27T20:11:49.141Z,19.60
2019-06-27T20:13:50.604Z,19.60
2019-06-27T20:15:52.031Z,19.50
2019-06-27T20:17:53.415Z,19.50
2019-06-27T20:19:54.806Z,19.40
2019-06-27T20:21:56.241Z,19.30
2019-06-27T20:23:57.639Z,19.20
2019-06-27T20:25:59.024Z,19.30
2019-06-27T20:28:00.447Z,19.20
2019-06-27T20:30:02.451Z,19.20
2019-06-27T20:32:03.842Z,19.20
2019-06-27T20:34:05.272Z,19.10
2019-06-27T20:36:06.637Z,19.10
2019-06-27T20:38:08.087Z,19.00
2019-06-27T20:40:10.800Z,19.00
2019-06-27T20:42:12.290Z,19.00
2019-06-27T20:44:13.757Z,18.90
2019-06-27T20:46:15.138Z,18.90
2019-06-27T20:48:16.558Z,18.80
2019-06-27T20:50:18.583Z,18.80
2019-06-27T20:52:20.011Z,18.70
2019-06-27T20:54:21.409Z,18.70
2019-06-27T20:56:22.776Z,18.60
2019-06-27T20:58:24.189Z,18.60
2019-06-27T21:00:25.692Z,18.50
2019-06-27T21:02:27.182Z,18.50
2019-06-27T21:04:28.591Z,18.50
2019-06-27T21:06:29.972Z,18.40
2019-06-27T21:08:31.351Z,18.40
2019-06-27T21:10:32.859Z,18.30
2019-06-27T21:12:34.241Z,18.20
2019-06-27T21:14:35.663Z,18.20
2019-06-27T21:16:37.043Z,18.10
2019-06-27T21:18:38.431Z,18.00
2019-06-27T21:20:39.860Z,18.00
2019-06-27T21:22:41.275Z,18.00
2019-06-27T21:24:42.752Z,17.90
2019-06-27T21:26:44.126Z,17.90
2019-06-27T21:28:45.557Z,17.90
2019-06-27T21:30:46.951Z,17.80
2019-06-27T21:32:48.720Z,17.80
2019-06-27T21:34:50.297Z,17.80
2019-06-27T21:36:51.699Z,17.70
2019-06-27T21:39:06.673Z,17.70
2019-06-27T21:40:56.496Z,17.60
2019-06-27T21:42:57.894Z,17.50
2019-06-27T21:44:59.324Z,17.40
2019-06-27T21:47:00.738Z,17.40
2019-06-27T21:49:02.139Z,17.30
2019-06-27T21:51:03.640Z,17.30
2019-06-27T21:53:06.979Z,17.30
2019-06-27T21:55:08.470Z,17.20
2019-06-27T21:57:09.876Z,17.20
2019-06-27T21:59:11.362Z,17.20
2019-06-27T22:01:12.977Z,17.20
2019-06-27T22:03:14.808Z,17.10
2019-06-27T22:05:16.597Z,17.10
2019-06-27T22:07:18.079Z,17.00
2019-06-27T22:09:25.064Z,17.00
2019-06-27T22:11:22.812Z,17.00
2019-06-27T22:13:24.199Z,16.90
2019-06-27T22:15:25.655Z,16.90
2019-06-27T22:17:27.173Z,16.80
2019-06-27T22:19:28.594Z,16.70
2019-06-27T22:21:29.989Z,16.70
2019-06-27T22:23:31.507Z,16.70
2019-06-27T22:25:40.534Z,16.60
2019-06-27T22:27:36.208Z,16.60
2019-06-27T22:29:37.603Z,16.50
2019-06-27T22:31:39.002Z,16.50
2019-06-27T22:33:40.390Z,16.50
2019-06-27T22:35:41.812Z,16.50
2019-06-27T22:38:02.023Z,16.40
2019-06-27T22:40:26.123Z,16.40
2019-06-27T22:42:46.442Z,16.30
2019-06-27T22:45:06.260Z,16.30
2019-06-27T22:47:26.029Z,16.20
2019-06-27T22:49:27.315Z,16.20
2019-06-27T22:51:40.119Z,16.10
2019-06-27T22:53:46.018Z,16.10
2019-06-27T22:55:47.516Z,16.00
2019-06-27T22:57:48.938Z,16.00
2019-06-27T22:59:50.313Z,16.00
2019-06-27T23:01:51.754Z,16.00
2019-06-27T23:03:53.129Z,16.00
2019-06-27T23:05:54.574Z,16.00
2019-06-27T23:07:55.982Z,15.90
2019-06-27T23:09:57.713Z,15.90
2019-06-27T23:11:59.211Z,15.80
2019-06-27T23:14:00.603Z,15.80
2019-06-27T23:16:02.189Z,15.80
2019-06-27T23:18:03.666Z,15.80
2019-06-27T23:20:05.776Z,15.70
2019-06-27T23:22:07.161Z,15.70
2019-06-27T23:24:08.589Z,15.70
2019-06-27T23:26:10.007Z,15.60
2019-06-27T23:28:11.471Z,15.60
2019-06-27T23:30:13.100Z,15.50
2019-06-27T23:32:14.511Z,15.50
2019-06-27T23:34:15.901Z,15.50
2019-06-27T23:36:17.391Z,15.50
2019-06-27T23:38:18.846Z,15.50
2019-06-27T23:40:20.432Z,15.50
2019-06-27T23:42:21.823Z,15.40
2019-06-27T23:44:23.262Z,15.40
2019-06-27T23:46:43.343Z,15.40
2019-06-27T23:48:44.743Z,15.30
2019-06-27T23:50:46.148Z,15.20
2019-06-27T23:52:47.641Z,15.20
2019-06-27T23:54:49.084Z,15.10
2019-06-27T23:56:50.479Z,15.10
2019-06-27T23:58:51.919Z,15.00
